createdAt,value
2023-02-05T00:01:28.017Z,3.83
2023-02-05T00:07:00.017Z,3.47
2023-02-05T00:12:30.996Z,4.18
2023-02-05T00:17:59.005Z,3.38
2023-02-05T00:23:24.076Z,3.60
2023-02-05T00:28:50.032Z,3.92
2023-02-05T00:34:17.022Z,4.00
2023-02-05T00:39:42.019Z,3.67
2023-02-05T00:45:06.015Z,2.70
2023-02-05T00:50:34.060Z,4.28
2023-02-05T00:55:58.045Z,4.28
2023-02-05T01:01:23.041Z,4.68
2023-02-05T01:06:50.009Z,4.55
2023-02-05T01:12:15.078Z,3.58
2023-02-05T01:17:39.040Z,5.22
2023-02-05T01:23:07.057Z,3.83
2023-02-05T01:28:32.056Z,4.15
2023-02-05T01:33:57.037Z,4.63
2023-02-05T01:39:24.025Z,3.63
2023-02-05T01:44:50.072Z,5.20
2023-02-05T01:50:14.057Z,3.75
2023-02-05T01:55:44.031Z,4.70
2023-02-05T02:01:09.069Z,4.60
2023-02-05T02:06:34.075Z,5.03
2023-02-05T02:12:01.036Z,5.45
2023-02-05T02:17:28.107Z,5.22
2023-02-05T02:23:19.056Z,4.20
2023-02-05T02:28:54.059Z,4.75
2023-02-05T02:34:26.053Z,6.00
2023-02-05T02:39:56.057Z,4.55
2023-02-05T02:45:26.042Z,3.90
2023-02-05T02:50:55.054Z,6.30
2023-02-05T02:56:22.076Z,5.93
2023-02-05T03:01:54.065Z,4.60
2023-02-05T03:07:23.102Z,4.93
2023-02-05T03:12:48.086Z,5.35
2023-02-05T03:18:16.098Z,4.55
2023-02-05T03:23:42.101Z,4.68
2023-02-05T03:29:07.063Z,4.53
2023-02-05T03:34:51.107Z,4.32
2023-02-05T03:40:25.104Z,4.32
2023-02-05T03:45:59.157Z,4.97
2023-02-05T03:51:37.101Z,5.22
2023-02-05T03:57:10.121Z,5.20
2023-02-05T04:02:37.126Z,4.85
2023-02-05T04:08:09.078Z,4.20
2023-02-05T04:13:44.079Z,6.32
2023-02-05T04:19:09.089Z,4.93
2023-02-05T04:24:36.104Z,4.85
2023-02-05T04:30:01.117Z,4.95
2023-02-05T04:35:30.130Z,4.68
2023-02-05T04:40:58.103Z,4.65
2023-02-05T04:46:23.132Z,4.85
2023-02-05T04:51:48.103Z,4.68
2023-02-05T04:57:15.100Z,4.97
2023-02-05T05:02:40.162Z,3.72
2023-02-05T05:08:04.097Z,4.72
2023-02-05T05:13:38.090Z,4.40
2023-02-05T05:19:03.121Z,5.30
2023-02-05T05:24:27.141Z,4.93
2023-02-05T05:29:56.131Z,6.65
2023-02-05T05:35:21.137Z,5.20
2023-02-05T05:40:58.109Z,4.63
2023-02-05T05:46:28.127Z,4.28
2023-02-05T05:51:53.116Z,4.72
2023-02-05T05:57:17.131Z,4.03
2023-02-05T06:02:51.155Z,4.32
2023-02-05T06:08:15.144Z,5.25
2023-02-05T06:13:47.101Z,6.07
2023-02-05T06:19:15.279Z,4.50
2023-02-05T06:24:39.111Z,4.85
2023-02-05T06:30:04.196Z,5.78
2023-02-05T06:35:31.155Z,4.68
2023-02-05T06:40:57.136Z,4.75
2023-02-05T06:46:21.132Z,5.07
2023-02-05T06:51:49.125Z,4.93
2023-02-05T06:57:14.139Z,5.43
2023-02-05T07:02:39.198Z,4.95
2023-02-05T07:08:06.171Z,4.47
2023-02-05T07:13:37.205Z,5.30
2023-02-05T07:19:02.188Z,4.13
2023-02-05T07:24:30.162Z,6.15
2023-02-05T07:29:55.181Z,4.95
2023-02-05T07:35:20.196Z,7.15
2023-02-05T07:40:48.178Z,5.50
2023-02-05T07:46:14.194Z,5.10
2023-02-05T07:51:35.354Z,5.00
2023-02-05T07:57:04.436Z,5.40
2023-02-05T08:02:30.169Z,4.18
2023-02-05T08:07:55.211Z,5.20
2023-02-05T08:13:22.209Z,3.80
2023-02-05T08:18:47.189Z,3.80
2023-02-05T08:24:12.201Z,3.30
2023-02-05T08:29:40.171Z,3.78
2023-02-05T08:35:05.173Z,2.97
2023-02-05T08:40:30.250Z,2.97
2023-02-05T08:46:02.262Z,3.25
2023-02-05T08:51:34.201Z,3.78
2023-02-05T08:57:00.238Z,4.88
2023-02-05T09:02:32.159Z,3.28
2023-02-05T09:07:57.169Z,3.70
2023-02-05T09:13:28.173Z,3.03
2023-02-05T09:18:56.211Z,2.20
2023-02-05T09:24:21.207Z,3.00
2023-02-05T09:29:46.229Z,2.00
2023-02-05T09:35:13.215Z,2.42
2023-02-05T09:40:42.188Z,2.75
2023-02-05T09:46:15.227Z,2.45
2023-02-05T09:51:46.216Z,2.55
2023-02-05T09:57:15.248Z,2.60
2023-02-05T10:02:46.202Z,2.88
2023-02-05T10:08:25.210Z,4.78
2023-02-05T10:13:54.207Z,3.30
2023-02-05T10:25:58.215Z,2.35
2023-02-05T10:31:35.370Z,2.80
2023-02-05T10:37:03.242Z,2.90
2023-02-05T10:42:43.385Z,4.85
2023-02-05T10:48:28.227Z,2.58
2023-02-05T10:53:52.251Z,2.75
2023-02-05T10:59:30.212Z,2.58
2023-02-05T11:05:01.222Z,3.13
2023-02-05T11:10:28.251Z,5.53
2023-02-05T11:16:15.302Z,2.30
2023-02-05T11:21:58.244Z,2.40
2023-02-05T11:27:42.271Z,2.65
2023-02-05T11:33:27.240Z,3.00
2023-02-05T11:39:00.266Z,2.83
2023-02-05T11:44:30.638Z,3.88
2023-02-05T11:49:57.297Z,3.75
2023-02-05T11:55:36.325Z,4.88
2023-02-05T12:01:08.285Z,3.53
2023-02-05T12:06:45.266Z,2.88
2023-02-05T12:12:25.379Z,2.80
2023-02-05T12:17:57.265Z,2.72
2023-02-05T12:23:42.498Z,2.92
2023-02-05T12:29:18.505Z,3.15
2023-02-05T12:34:54.292Z,3.20
2023-02-05T12:40:37.921Z,3.63
2023-02-05T12:46:11.351Z,3.33
2023-02-05T12:51:50.281Z,3.13
2023-02-05T12:57:21.280Z,2.35
2023-02-05T13:02:52.276Z,3.17
2023-02-05T13:08:23.300Z,4.75
2023-02-05T13:13:58.937Z,2.40
2023-02-05T13:19:36.292Z,2.97
2023-02-05T13:25:16.331Z,2.20
2023-02-05T13:30:44.407Z,2.67
2023-02-05T13:36:31.311Z,3.55
2023-02-05T13:42:13.289Z,3.17
2023-02-05T13:48:00.307Z,2.85
2023-02-05T13:53:45.342Z,2.20
2023-02-05T13:59:13.305Z,2.08
2023-02-05T14:04:45.347Z,3.20
2023-02-05T14:10:12.360Z,3.70
2023-02-05T14:15:51.444Z,2.63
2023-02-05T14:21:47.343Z,3.17
2023-02-05T14:27:15.329Z,3.80
2023-02-05T14:33:08.337Z,3.72
2023-02-05T14:38:45.342Z,4.82
2023-02-05T14:44:15.347Z,4.30
2023-02-05T14:49:45.365Z,9.02
2023-02-05T14:55:15.342Z,17.58
2023-02-05T15:00:51.541Z,8.48
2023-02-05T15:06:24.345Z,10.35
2023-02-05T15:12:19.313Z,8.23
2023-02-05T15:18:02.725Z,9.65
2023-02-05T15:23:35.352Z,6.63
2023-02-05T15:29:08.383Z,4.97
2023-02-05T15:34:47.344Z,9.25
2023-02-05T15:40:26.385Z,5.32
2023-02-05T15:45:54.480Z,11.43
2023-02-05T15:51:33.697Z,4.10
2023-02-05T15:56:58.371Z,4.68
2023-02-05T16:02:28.395Z,6.20
2023-02-05T16:08:02.666Z,4.80
2023-02-05T16:13:28.441Z,22.05
2023-02-05T16:18:57.340Z,10.48
2023-02-05T16:24:34.801Z,5.57
2023-02-05T16:30:04.811Z,7.43
2023-02-05T16:35:35.392Z,6.90
2023-02-05T16:41:13.584Z,5.20
2023-02-05T16:47:14.419Z,7.25
2023-02-05T16:52:45.638Z,31.23
2023-02-05T16:58:16.390Z,6.93
2023-02-05T17:03:44.497Z,7.35
2023-02-05T17:09:11.394Z,11.40
2023-02-05T17:14:45.714Z,7.20
2023-02-05T17:20:17.681Z,6.40
2023-02-05T17:25:43.671Z,6.10
2023-02-05T17:31:11.433Z,6.40
2023-02-05T17:36:36.847Z,6.78
2023-02-05T17:42:14.401Z,9.40
2023-02-05T17:47:41.398Z,8.20
2023-02-05T17:53:07.539Z,11.00
2023-02-05T17:58:31.394Z,15.07
2023-02-05T18:03:59.422Z,11.63
2023-02-05T18:09:27.796Z,13.68
2023-02-05T18:14:52.388Z,10.93
2023-02-05T18:20:20.431Z,13.43
2023-02-05T18:25:47.432Z,7.80
2023-02-05T18:31:13.510Z,7.00
2023-02-05T18:36:42.503Z,7.45
2023-02-05T18:42:06.392Z,6.03
2023-02-05T18:47:31.414Z,7.45
2023-02-05T18:52:59.248Z,9.20
2023-02-05T18:58:24.429Z,8.93
2023-02-05T19:03:59.665Z,7.78
2023-02-05T19:09:28.503Z,7.00
2023-02-05T19:14:53.425Z,8.38
2023-02-05T19:20:19.626Z,6.95
2023-02-05T19:25:46.417Z,7.90
2023-02-05T19:31:21.017Z,7.18
2023-02-05T19:36:46.422Z,8.45
2023-02-05T19:42:14.987Z,8.18
2023-02-05T19:47:39.499Z,7.47
2023-02-05T19:53:03.836Z,7.35
2023-02-05T19:58:31.477Z,7.85
2023-02-05T20:03:57.449Z,7.25
2023-02-05T20:09:24.458Z,8.45
2023-02-05T20:14:52.810Z,9.80
2023-02-05T20:20:32.646Z,7.45
2023-02-05T20:25:58.461Z,7.80
2023-02-05T20:31:38.537Z,7.47
2023-02-05T20:37:05.457Z,9.68
2023-02-05T20:42:30.817Z,7.10
2023-02-05T20:47:57.497Z,9.38
2023-02-05T20:53:24.510Z,10.68
2023-02-05T20:58:49.501Z,8.38
2023-02-05T21:04:19.472Z,7.95
2023-02-05T21:09:43.448Z,8.10
2023-02-05T21:15:08.466Z,10.15
2023-02-05T21:20:35.806Z,8.80
2023-02-05T21:26:00.471Z,8.75
2023-02-05T21:31:24.556Z,10.23
2023-02-05T21:36:52.718Z,9.85
2023-02-05T21:42:16.450Z,9.77
2023-02-05T21:47:41.687Z,11.32
2023-02-05T21:53:12.500Z,14.15
2023-02-05T21:58:39.511Z,12.43
2023-02-05T22:04:06.463Z,11.65
2023-02-05T22:09:34.681Z,14.18
2023-02-05T22:14:58.477Z,14.68
2023-02-05T22:20:23.488Z,13.20
2023-02-05T22:25:50.517Z,10.82
2023-02-05T22:31:18.550Z,9.55
2023-02-05T22:36:45.490Z,9.50
2023-02-05T22:42:13.481Z,9.50
2023-02-05T22:47:38.497Z,9.43
2023-02-05T22:53:06.606Z,11.10
2023-02-05T22:58:33.556Z,10.70
2023-02-05T23:03:59.537Z,10.43
2023-02-05T23:09:25.551Z,13.77
2023-02-05T23:14:53.508Z,11.77
2023-02-05T23:20:20.516Z,10.45
2023-02-05T23:25:45.498Z,9.93
2023-02-05T23:31:12.704Z,10.27
2023-02-05T23:36:37.831Z,10.23
2023-02-05T23:42:08.517Z,9.73
2023-02-05T23:47:36.676Z,11.55
2023-02-05T23:53:00.504Z,9.90
2023-02-05T23:58:26.513Z,9.73
